createdAt,value
2023-04-18T00:01:56.381Z,1.80
2023-04-18T00:04:25.544Z,1.80
2023-04-18T00:06:53.813Z,1.60
2023-04-18T00:09:22.070Z,2.30
2023-04-18T00:11:50.226Z,2.30
2023-04-18T00:14:20.203Z,2.20
2023-04-18T00:16:48.397Z,2.60
2023-04-18T00:19:16.753Z,1.90
2023-04-18T00:21:46.152Z,2.50
2023-04-18T00:24:14.496Z,1.80
2023-04-18T00:26:43.048Z,3.00
2023-04-18T00:29:11.241Z,2.40
2023-04-18T00:31:39.476Z,2.40
2023-04-18T00:34:07.813Z,2.10
2023-04-18T00:36:36.656Z,2.50
2023-04-18T00:39:04.898Z,2.00
2023-04-18T00:41:33.312Z,2.20
2023-04-18T00:44:01.789Z,2.40
2023-04-18T00:46:30.230Z,2.00
2023-04-18T00:48:58.978Z,2.10
2023-04-18T00:51:28.112Z,2.30
2023-04-18T00:53:56.674Z,2.90
2023-04-18T00:56:26.019Z,2.30
2023-04-18T00:58:54.638Z,2.20
2023-04-18T01:01:23.442Z,2.60
2023-04-18T01:03:52.154Z,3.10
2023-04-18T01:06:20.678Z,3.30
2023-04-18T01:08:49.018Z,2.00
2023-04-18T01:11:19.365Z,2.20
2023-04-18T01:13:59.814Z,2.20
2023-04-18T01:16:29.554Z,1.90
2023-04-18T01:18:57.860Z,2.60
2023-04-18T01:21:27.095Z,2.30
2023-04-18T01:23:55.310Z,2.40
2023-04-18T01:26:23.556Z,3.10
2023-04-18T01:28:51.842Z,2.90
2023-04-18T01:31:20.162Z,1.90
2023-04-18T01:33:48.501Z,2.60
2023-04-18T01:36:17.453Z,2.50
2023-04-18T01:38:45.772Z,2.50
2023-04-18T01:41:13.960Z,3.20
2023-04-18T01:43:43.879Z,2.50
2023-04-18T01:46:12.149Z,2.20
2023-04-18T01:48:40.372Z,2.80
2023-04-18T01:51:08.585Z,2.10
2023-04-18T01:53:37.102Z,2.80
2023-04-18T01:56:05.798Z,3.00
2023-04-18T01:58:34.158Z,2.80
2023-04-18T02:01:02.727Z,3.10
2023-04-18T02:03:31.380Z,3.10
2023-04-18T02:06:01.235Z,3.00
2023-04-18T02:08:31.005Z,2.80
2023-04-18T02:10:59.896Z,2.30
2023-04-18T02:13:28.468Z,2.50
2023-04-18T02:15:58.938Z,2.40
2023-04-18T02:18:27.219Z,3.30
2023-04-18T02:20:55.498Z,2.60
2023-04-18T02:23:23.714Z,3.20
2023-04-18T02:25:51.966Z,3.20
2023-04-18T02:28:20.607Z,3.20
2023-04-18T02:30:49.342Z,4.00
2023-04-18T02:33:17.909Z,2.70
2023-04-18T02:35:46.477Z,2.80
2023-04-18T02:38:15.061Z,2.20
2023-04-18T02:40:43.649Z,2.60
2023-04-18T02:43:11.833Z,2.50
2023-04-18T02:45:40.092Z,2.40
2023-04-18T02:48:08.702Z,2.60
2023-04-18T02:50:37.308Z,3.40
2023-04-18T02:53:05.671Z,3.00
2023-04-18T02:55:44.111Z,2.80
2023-04-18T02:58:12.358Z,2.60
2023-04-18T03:00:58.762Z,2.60
2023-04-18T03:03:46.035Z,2.70
2023-04-18T03:06:27.948Z,2.30
2023-04-18T03:08:57.978Z,2.20
2023-04-18T03:11:26.758Z,2.60
2023-04-18T03:13:55.690Z,2.30
2023-04-18T03:16:24.427Z,2.90
2023-04-18T03:18:52.740Z,2.60
2023-04-18T03:21:22.010Z,2.90
2023-04-18T03:23:50.533Z,1.80
2023-04-18T03:26:18.924Z,3.40
2023-04-18T03:28:47.298Z,2.90
2023-04-18T03:31:16.340Z,2.80
2023-04-18T03:33:45.847Z,3.10
2023-04-18T03:36:25.466Z,2.60
2023-04-18T03:38:55.392Z,2.70
2023-04-18T03:41:25.068Z,2.40
2023-04-18T03:43:53.242Z,2.30
2023-04-18T03:46:22.237Z,2.40
2023-04-18T03:48:51.973Z,3.30
2023-04-18T03:51:20.238Z,2.60
2023-04-18T03:53:48.419Z,2.80
2023-04-18T03:56:18.599Z,3.10
2023-04-18T03:58:50.511Z,2.80
2023-04-18T04:01:19.504Z,2.80
2023-04-18T04:03:47.939Z,2.70
2023-04-18T04:06:17.915Z,1.90
2023-04-18T04:08:46.515Z,3.00
2023-04-18T04:11:15.601Z,3.40
2023-04-18T04:13:43.771Z,3.30
2023-04-18T04:16:13.746Z,3.60
2023-04-18T04:18:42.285Z,3.00
2023-04-18T04:21:10.563Z,3.00
2023-04-18T04:23:46.394Z,3.00
2023-04-18T04:26:23.576Z,2.40
2023-04-18T04:29:00.585Z,3.30
2023-04-18T04:31:29.493Z,2.40
2023-04-18T04:33:57.943Z,2.70
2023-04-18T04:36:27.395Z,2.90
2023-04-18T04:38:57.077Z,3.50
2023-04-18T04:41:32.711Z,3.00
2023-04-18T04:44:01.963Z,2.80
2023-04-18T04:46:34.040Z,2.90
2023-04-18T04:49:04.900Z,2.80
2023-04-18T04:51:33.554Z,2.70
2023-04-18T04:54:01.903Z,4.30
2023-04-18T04:56:30.858Z,3.10
2023-04-18T04:58:59.287Z,3.00
2023-04-18T05:01:36.393Z,3.20
2023-04-18T05:04:05.210Z,4.00
2023-04-18T05:06:33.779Z,4.30
2023-04-18T05:09:01.927Z,3.20
2023-04-18T05:11:30.315Z,3.40
2023-04-18T05:13:59.204Z,2.80
2023-04-18T05:16:27.453Z,2.70
2023-04-18T05:18:55.583Z,3.90
2023-04-18T05:21:26.145Z,3.40
2023-04-18T05:23:54.390Z,4.00
2023-04-18T05:26:22.802Z,3.10
2023-04-18T05:28:51.685Z,3.50
2023-04-18T05:31:19.840Z,4.70
2023-04-18T05:33:48.113Z,3.90
2023-04-18T05:36:16.451Z,3.70
2023-04-18T05:38:44.905Z,3.90
2023-04-18T05:41:13.258Z,4.20
2023-04-18T05:43:42.934Z,3.80
2023-04-18T05:46:12.741Z,3.10
2023-04-18T05:48:41.390Z,2.90
2023-04-18T05:51:11.511Z,3.50
2023-04-18T05:53:40.277Z,3.20
2023-04-18T05:56:08.588Z,3.20
2023-04-18T05:58:50.621Z,3.30
2023-04-18T06:01:19.260Z,4.00
2023-04-18T06:03:47.788Z,2.90
2023-04-18T06:06:16.430Z,3.60
2023-04-18T06:08:44.640Z,3.80
2023-04-18T06:11:15.100Z,3.00
2023-04-18T06:13:43.277Z,3.10
2023-04-18T06:16:12.179Z,2.80
2023-04-18T06:18:40.477Z,4.90
2023-04-18T06:21:08.641Z,3.10
2023-04-18T06:23:38.732Z,3.20
2023-04-18T06:26:07.464Z,4.00
2023-04-18T06:28:35.997Z,3.70
2023-04-18T06:31:04.267Z,3.60
2023-04-18T06:33:33.819Z,3.70
2023-04-18T06:36:01.956Z,3.40
2023-04-18T06:38:33.655Z,3.60
2023-04-18T06:41:01.939Z,3.30
2023-04-18T06:43:30.220Z,3.40
2023-04-18T06:45:59.339Z,4.10
2023-04-18T06:48:27.614Z,3.80
2023-04-18T06:50:56.041Z,2.90
2023-04-18T06:53:24.316Z,3.90
2023-04-18T06:55:52.745Z,3.70
2023-04-18T06:58:21.195Z,4.00
2023-04-18T07:00:52.029Z,4.50
2023-04-18T07:03:20.607Z,3.40
2023-04-18T07:05:50.542Z,3.50
2023-04-18T07:08:18.953Z,3.10
2023-04-18T07:10:47.303Z,3.70
2023-04-18T07:13:16.340Z,3.50
2023-04-18T07:15:44.467Z,2.70
2023-04-18T07:18:16.141Z,3.30
2023-04-18T07:20:49.906Z,3.40
2023-04-18T07:23:18.039Z,3.80
2023-04-18T07:25:46.238Z,3.50
2023-04-18T07:28:14.467Z,3.90
2023-04-18T07:30:42.883Z,3.70
2023-04-18T07:33:26.832Z,3.70
2023-04-18T07:35:54.977Z,3.80
2023-04-18T07:38:23.504Z,3.60
2023-04-18T07:41:00.950Z,2.90
2023-04-18T07:43:29.280Z,2.80
2023-04-18T07:45:57.463Z,4.10
2023-04-18T07:48:26.165Z,2.70
2023-04-18T07:50:54.347Z,2.90
2023-04-18T07:53:22.775Z,3.00
2023-04-18T07:55:51.420Z,3.40
2023-04-18T07:58:20.249Z,3.80
2023-04-18T08:00:48.637Z,3.60
2023-04-18T08:03:17.093Z,3.30
2023-04-18T08:05:46.115Z,3.20
2023-04-18T08:08:14.597Z,4.00
2023-04-18T08:10:42.825Z,2.70
2023-04-18T08:13:13.412Z,5.10
2023-04-18T08:15:41.921Z,4.90
2023-04-18T08:18:10.067Z,4.70
2023-04-18T08:20:38.679Z,2.90
2023-04-18T08:23:10.274Z,4.80
2023-04-18T08:25:39.848Z,3.70
2023-04-18T08:28:09.116Z,4.40
2023-04-18T08:30:37.404Z,5.10
2023-04-18T08:33:05.522Z,4.10
2023-04-18T08:35:35.425Z,3.10
2023-04-18T08:38:03.817Z,3.60
2023-04-18T08:40:32.025Z,2.50
2023-04-18T08:43:00.231Z,3.60
2023-04-18T08:45:28.955Z,3.90
2023-04-18T08:47:59.059Z,3.40
2023-04-18T08:50:27.829Z,3.10
2023-04-18T08:52:56.189Z,3.30
2023-04-18T08:55:24.544Z,3.10
2023-04-18T08:57:56.199Z,4.40
2023-04-18T09:00:24.509Z,3.80
2023-04-18T09:02:57.619Z,3.80
2023-04-18T09:05:27.073Z,3.00
2023-04-18T09:07:56.256Z,3.00
2023-04-18T09:10:34.440Z,3.60
2023-04-18T09:13:05.985Z,3.70
2023-04-18T09:15:34.779Z,3.50
2023-04-18T09:18:03.498Z,3.60
2023-04-18T09:20:41.103Z,3.20
2023-04-18T09:23:16.457Z,4.20
2023-04-18T09:25:46.881Z,3.10
2023-04-18T09:28:30.041Z,4.00
2023-04-18T09:31:07.609Z,3.10
2023-04-18T09:33:37.279Z,3.00
2023-04-18T09:36:27.324Z,3.20
2023-04-18T09:38:57.237Z,3.90
2023-04-18T09:41:25.857Z,3.50
2023-04-18T09:44:09.718Z,3.50
2023-04-18T09:46:39.756Z,4.00
2023-04-18T09:49:10.827Z,3.40
2023-04-18T09:51:39.611Z,3.10
2023-04-18T09:54:08.082Z,3.40
2023-04-18T09:56:37.449Z,3.30
2023-04-18T09:59:09.385Z,3.10
2023-04-18T10:01:38.114Z,2.90
2023-04-18T10:04:09.812Z,3.10
2023-04-18T10:06:39.919Z,3.90
2023-04-18T10:09:08.950Z,3.30
2023-04-18T10:11:37.217Z,4.60
2023-04-18T10:14:14.951Z,3.70
2023-04-18T10:16:45.687Z,4.00
2023-04-18T10:19:28.594Z,4.00
2023-04-18T10:21:58.946Z,4.10
2023-04-18T10:24:57.075Z,4.00
2023-04-18T10:28:00.418Z,5.20
2023-04-18T10:30:41.042Z,4.60
2023-04-18T10:33:30.303Z,4.50
2023-04-18T10:36:08.913Z,5.20
2023-04-18T10:38:45.449Z,4.10
2023-04-18T10:41:27.630Z,7.50
2023-04-18T10:44:23.003Z,9.50
2023-04-18T10:46:51.856Z,6.50
2023-04-18T10:49:22.870Z,5.20
2023-04-18T10:51:58.490Z,5.40
2023-04-18T10:54:39.916Z,6.00
2023-04-18T10:57:10.223Z,5.40
2023-04-18T10:59:39.574Z,5.40
2023-04-18T11:02:30.946Z,5.60
2023-04-18T11:05:00.494Z,7.10
2023-04-18T11:07:34.579Z,5.60
2023-04-18T11:10:04.083Z,6.20
2023-04-18T11:12:34.681Z,6.70
2023-04-18T11:15:17.884Z,8.10
2023-04-18T11:17:46.001Z,5.50
2023-04-18T11:20:15.104Z,6.00
2023-04-18T11:22:46.613Z,15.40
2023-04-18T11:25:16.498Z,13.10
2023-04-18T11:27:45.670Z,6.80
2023-04-18T11:30:14.728Z,5.40
2023-04-18T11:32:44.110Z,7.50
2023-04-18T11:35:13.581Z,9.20
2023-04-18T11:37:43.403Z,8.50
2023-04-18T11:40:12.493Z,12.30
2023-04-18T11:42:41.596Z,8.40
2023-04-18T11:45:12.385Z,9.90
2023-04-18T11:47:42.935Z,7.80
2023-04-18T11:50:12.404Z,10.00
2023-04-18T11:52:41.718Z,6.30
2023-04-18T11:55:24.055Z,10.50
2023-04-18T11:57:53.446Z,8.20
2023-04-18T12:00:39.080Z,7.60
2023-04-18T12:03:15.706Z,6.10
2023-04-18T12:08:18.557Z,9.60
2023-04-18T12:10:51.228Z,8.50
2023-04-18T12:13:24.940Z,7.00
2023-04-18T12:15:54.257Z,6.90
2023-04-18T12:18:24.895Z,15.40
2023-04-18T12:20:56.929Z,35.60
2023-04-18T12:23:37.208Z,21.40
2023-04-18T12:26:08.749Z,17.20
2023-04-18T12:28:37.844Z,11.40
2023-04-18T12:31:07.606Z,9.30
2023-04-18T12:33:38.437Z,10.20
2023-04-18T12:36:08.727Z,9.10
2023-04-18T12:38:37.423Z,8.70
2023-04-18T12:41:06.512Z,10.10
2023-04-18T12:43:34.996Z,7.30
2023-04-18T12:46:03.486Z,6.90
2023-04-18T12:48:31.850Z,7.00
2023-04-18T12:51:00.047Z,6.80
2023-04-18T12:53:28.221Z,6.60
2023-04-18T12:55:56.610Z,7.20
2023-04-18T12:58:24.859Z,6.80
2023-04-18T13:00:53.319Z,7.10
2023-04-18T13:03:21.780Z,7.30
2023-04-18T13:05:50.163Z,6.80
2023-04-18T13:08:18.508Z,8.00
2023-04-18T13:10:47.835Z,6.40
2023-04-18T13:13:16.304Z,8.10
2023-04-18T13:15:44.515Z,6.80
2023-04-18T13:18:12.699Z,7.10
2023-04-18T13:20:41.570Z,5.50
2023-04-18T13:23:10.262Z,8.00
2023-04-18T13:25:38.951Z,15.10
2023-04-18T13:28:07.124Z,12.00
2023-04-18T13:30:36.027Z,8.80
2023-04-18T13:33:04.548Z,6.60
2023-04-18T13:35:32.891Z,5.60
2023-04-18T13:38:01.279Z,9.30
2023-04-18T13:40:29.447Z,7.60
2023-04-18T13:42:57.957Z,8.10
2023-04-18T13:45:26.290Z,8.10
2023-04-18T13:47:54.807Z,6.80
2023-04-18T13:50:23.500Z,6.60
2023-04-18T13:52:52.173Z,7.80
2023-04-18T13:55:20.306Z,6.50
2023-04-18T13:57:48.658Z,6.30
2023-04-18T14:00:17.704Z,5.60
2023-04-18T14:02:45.999Z,5.70
2023-04-18T14:05:14.740Z,8.70
2023-04-18T14:07:43.305Z,8.50
2023-04-18T14:10:11.769Z,8.20
2023-04-18T14:12:40.588Z,7.70
2023-04-18T14:15:09.579Z,8.90
2023-04-18T14:17:37.904Z,6.90
2023-04-18T14:20:07.969Z,7.80
2023-04-18T14:22:36.088Z,8.20
2023-04-18T14:25:04.813Z,9.60
2023-04-18T14:27:33.749Z,9.90
2023-04-18T14:30:02.161Z,6.50
2023-04-18T14:32:30.849Z,5.60
2023-04-18T14:34:59.409Z,5.60
2023-04-18T14:37:27.902Z,6.40
2023-04-18T14:39:56.286Z,5.60
2023-04-18T14:42:24.446Z,5.70
2023-04-18T14:44:52.538Z,5.00
2023-04-18T14:47:21.014Z,5.60
2023-04-18T14:49:50.402Z,6.60
2023-04-18T14:52:18.811Z,6.80
2023-04-18T14:54:47.105Z,5.90
2023-04-18T14:57:15.546Z,7.40
2023-04-18T14:59:43.771Z,6.80
2023-04-18T15:02:12.068Z,8.70
2023-04-18T15:04:40.642Z,6.60
2023-04-18T15:07:08.901Z,5.30
2023-04-18T15:09:37.758Z,6.80
2023-04-18T15:12:06.648Z,7.50
2023-04-18T15:14:35.993Z,8.30
2023-04-18T15:17:05.606Z,7.20
2023-04-18T15:19:34.597Z,9.40
2023-04-18T15:22:03.237Z,8.00
2023-04-18T15:24:31.477Z,8.40
2023-04-18T15:27:00.263Z,6.20
2023-04-18T15:29:29.280Z,6.50
2023-04-18T15:31:57.539Z,6.50
2023-04-18T15:34:26.455Z,6.80
2023-04-18T15:36:54.678Z,6.00
2023-04-18T15:39:23.753Z,5.10
2023-04-18T15:41:55.185Z,5.30
2023-04-18T15:44:23.384Z,4.70
2023-04-18T15:46:51.855Z,6.20
2023-04-18T15:49:20.487Z,6.40
2023-04-18T15:51:49.013Z,4.90
2023-04-18T15:54:17.269Z,4.70
2023-04-18T15:56:45.778Z,5.90
2023-04-18T15:59:13.963Z,5.20
2023-04-18T16:01:45.248Z,4.90
2023-04-18T16:04:14.882Z,5.30
2023-04-18T16:06:43.398Z,4.40
2023-04-18T16:09:11.683Z,4.90
2023-04-18T16:11:39.962Z,4.80
2023-04-18T16:14:08.192Z,5.10
2023-04-18T16:16:36.346Z,5.10
2023-04-18T16:19:05.579Z,4.60
2023-04-18T16:21:33.979Z,4.80
2023-04-18T16:24:02.410Z,4.40
2023-04-18T16:26:30.932Z,4.70
2023-04-18T16:28:59.252Z,4.00
2023-04-18T16:31:27.518Z,4.20
2023-04-18T16:33:56.191Z,4.20
2023-04-18T16:36:24.513Z,4.30
2023-04-18T16:38:52.756Z,4.50
2023-04-18T16:41:20.985Z,4.00
2023-04-18T16:43:49.255Z,4.70
2023-04-18T16:46:18.044Z,4.80
2023-04-18T16:48:46.760Z,4.70
2023-04-18T16:51:14.951Z,6.10
2023-04-18T16:53:44.729Z,5.40
2023-04-18T16:56:12.937Z,5.00
2023-04-18T16:58:41.293Z,6.10
2023-04-18T17:01:09.571Z,5.60
2023-04-18T17:03:38.027Z,5.20
2023-04-18T17:06:07.030Z,5.90
2023-04-18T17:08:36.056Z,6.50
2023-04-18T17:11:04.543Z,8.10
2023-04-18T17:13:32.882Z,9.50
2023-04-18T17:16:01.334Z,9.70
2023-04-18T17:18:29.787Z,9.30
2023-04-18T17:20:58.275Z,7.10
2023-04-18T17:23:26.592Z,8.10
2023-04-18T17:25:54.760Z,10.60
2023-04-18T17:28:23.864Z,9.20
2023-04-18T17:30:52.237Z,12.20
2023-04-18T17:33:21.226Z,10.70
2023-04-18T17:35:50.487Z,9.30
2023-04-18T17:38:18.866Z,9.80
2023-04-18T17:40:47.088Z,9.90
2023-04-18T17:43:15.260Z,8.50
2023-04-18T17:45:44.220Z,8.70
2023-04-18T17:48:12.942Z,8.30
2023-04-18T17:50:41.379Z,7.50
2023-04-18T17:53:09.638Z,7.30
2023-04-18T17:55:39.738Z,7.60
2023-04-18T17:58:08.011Z,7.70
2023-04-18T18:00:36.803Z,6.50
2023-04-18T18:03:05.323Z,7.40
2023-04-18T18:05:35.677Z,6.30
2023-04-18T18:08:04.222Z,6.80
2023-04-18T18:10:33.597Z,7.30
2023-04-18T18:13:02.168Z,7.70
2023-04-18T18:15:31.226Z,7.10
2023-04-18T18:17:59.816Z,6.40
2023-04-18T18:20:28.167Z,7.40
2023-04-18T18:22:59.946Z,7.60
2023-04-18T18:25:28.775Z,7.00
2023-04-18T18:27:57.217Z,7.00
2023-04-18T18:30:25.523Z,8.20
2023-04-18T18:32:54.526Z,9.10
2023-04-18T18:35:22.763Z,7.90
2023-04-18T18:37:51.352Z,8.40
2023-04-18T18:40:19.737Z,8.40
2023-04-18T18:42:51.450Z,7.30
2023-04-18T18:45:21.303Z,8.10
2023-04-18T18:47:49.552Z,7.70
2023-04-18T18:50:18.073Z,8.70
2023-04-18T18:52:46.366Z,7.40
2023-04-18T18:55:15.398Z,8.90
2023-04-18T18:57:43.635Z,8.90
2023-04-18T19:00:13.506Z,8.00
2023-04-18T19:02:42.406Z,7.70
2023-04-18T19:05:12.740Z,8.20
2023-04-18T19:07:42.519Z,9.20
2023-04-18T19:10:10.800Z,7.30
2023-04-18T19:12:38.994Z,6.90
2023-04-18T19:15:08.128Z,7.40
2023-04-18T19:17:36.793Z,7.10
2023-04-18T19:20:05.847Z,6.80
2023-04-18T19:22:34.736Z,5.90
2023-04-18T19:25:03.525Z,5.70
2023-04-18T19:27:31.727Z,6.60
2023-04-18T19:29:59.880Z,5.20
2023-04-18T19:32:28.200Z,5.50
2023-04-18T19:34:56.758Z,5.70
2023-04-18T19:37:25.139Z,5.60
2023-04-18T19:39:53.409Z,6.10
2023-04-18T19:42:21.728Z,6.30
2023-04-18T19:44:49.781Z,5.80
2023-04-18T19:47:17.956Z,5.60
2023-04-18T19:49:46.228Z,5.10
2023-04-18T19:52:14.761Z,5.10
2023-04-18T19:54:43.096Z,5.20
2023-04-18T19:57:11.924Z,5.70
2023-04-18T19:59:40.493Z,5.30
2023-04-18T20:02:09.301Z,5.80
2023-04-18T20:04:38.292Z,5.40
2023-04-18T20:07:06.684Z,5.70
2023-04-18T20:09:35.235Z,5.90
2023-04-18T20:12:03.725Z,5.00
2023-04-18T20:14:32.104Z,5.70
2023-04-18T20:17:00.315Z,5.60
2023-04-18T20:19:29.904Z,5.30
2023-04-18T20:21:58.209Z,5.70
2023-04-18T20:24:28.359Z,4.60
2023-04-18T20:26:59.014Z,4.90
2023-04-18T20:29:27.998Z,4.60
2023-04-18T20:31:56.255Z,4.70
2023-04-18T20:34:24.711Z,4.80
2023-04-18T20:36:53.185Z,5.20
2023-04-18T20:39:21.297Z,5.60
2023-04-18T20:41:50.822Z,5.60
2023-04-18T20:44:22.291Z,4.70
2023-04-18T20:46:52.059Z,4.60
2023-04-18T20:49:20.449Z,5.90
2023-04-18T20:51:48.603Z,6.10
2023-04-18T20:54:17.122Z,5.80
2023-04-18T20:56:45.576Z,4.90
2023-04-18T20:59:13.958Z,4.20
2023-04-18T21:01:42.787Z,4.20
2023-04-18T21:04:11.172Z,4.20
2023-04-18T21:06:39.612Z,4.70
2023-04-18T21:09:07.898Z,3.90
2023-04-18T21:11:36.171Z,3.50
2023-04-18T21:14:06.736Z,4.00
2023-04-18T21:16:36.059Z,4.30
2023-04-18T21:19:04.279Z,4.10
2023-04-18T21:21:34.430Z,4.10
2023-04-18T21:24:02.763Z,3.60
2023-04-18T21:26:31.031Z,3.80
2023-04-18T21:29:00.597Z,4.30
2023-04-18T21:31:29.937Z,3.50
2023-04-18T21:33:59.362Z,3.70
2023-04-18T21:36:28.292Z,3.90
2023-04-18T21:38:57.265Z,3.90
2023-04-18T21:41:26.086Z,4.20
2023-04-18T21:43:54.379Z,5.00
2023-04-18T21:46:22.800Z,3.70
2023-04-18T21:48:51.283Z,3.30
2023-04-18T21:51:19.585Z,2.80
2023-04-18T21:53:48.005Z,4.40
2023-04-18T21:56:17.025Z,4.50
2023-04-18T21:58:45.303Z,4.40
2023-04-18T22:01:13.581Z,3.60
2023-04-18T22:03:42.039Z,3.90
2023-04-18T22:06:10.629Z,4.10
2023-04-18T22:08:39.172Z,3.60
2023-04-18T22:11:09.284Z,5.10
2023-04-18T22:13:37.560Z,3.70
2023-04-18T22:16:08.406Z,4.00
2023-04-18T22:18:37.949Z,3.40
2023-04-18T22:21:06.974Z,3.50
2023-04-18T22:23:35.459Z,4.10
2023-04-18T22:26:03.737Z,3.50
2023-04-18T22:28:32.553Z,4.70
2023-04-18T22:31:01.002Z,4.10
2023-04-18T22:33:29.609Z,4.30
2023-04-18T22:35:59.324Z,4.70
2023-04-18T22:38:27.462Z,4.20
2023-04-18T22:40:55.878Z,3.50
2023-04-18T22:43:25.083Z,5.30
2023-04-18T22:45:53.180Z,3.60
2023-04-18T22:48:21.587Z,4.20
2023-04-18T22:50:50.146Z,4.40
2023-04-18T22:53:18.474Z,4.20
2023-04-18T22:55:46.852Z,3.90
2023-04-18T22:58:15.244Z,3.70
2023-04-18T23:00:43.655Z,4.00
2023-04-18T23:03:12.088Z,4.50
2023-04-18T23:05:41.267Z,4.30
2023-04-18T23:08:09.527Z,4.10
2023-04-18T23:10:38.420Z,4.00
2023-04-18T23:13:07.625Z,4.10
2023-04-18T23:15:35.805Z,4.40
2023-04-18T23:18:04.378Z,4.00
2023-04-18T23:20:32.983Z,5.00
2023-04-18T23:23:01.182Z,4.00
2023-04-18T23:25:33.349Z,4.60
2023-04-18T23:28:01.551Z,4.10
2023-04-18T23:30:30.210Z,4.30
2023-04-18T23:32:58.511Z,4.20
2023-04-18T23:35:26.760Z,4.40
2023-04-18T23:37:55.045Z,5.00
2023-04-18T23:40:23.339Z,4.90
2023-04-18T23:42:54.521Z,5.10
2023-04-18T23:45:24.535Z,5.00
2023-04-18T23:47:52.873Z,5.00
2023-04-18T23:50:21.266Z,4.60
2023-04-18T23:52:49.431Z,5.00
2023-04-18T23:55:17.503Z,4.90
2023-04-18T23:57:45.690Z,4.30
